sensor_id;sensor_type;location;lat;lon;timestamp;temperature;humidity
8858;DHT22;4465;50.904;4.696;2022-08-19T00:01:58;19.20;99.90
8858;DHT22;4465;50.904;4.696;2022-08-19T00:04:29;19.20;99.90
8858;DHT22;4465;50.904;4.696;2022-08-19T00:06:55;19.20;99.90
8858;DHT22;4465;50.904;4.696;2022-08-19T00:09:22;19.20;99.90
8858;DHT22;4465;50.904;4.696;2022-08-19T00:11:50;19.20;99.90
8858;DHT22;4465;50.904;4.696;2022-08-19T00:14:17;19.10;99.90
8858;DHT22;4465;50.904;4.696;2022-08-19T00:16:46;19.10;99.90
8858;DHT22;4465;50.904;4.696;2022-08-19T00:19:14;19.10;99.90
8858;DHT22;4465;50.904;4.696;2022-08-19T00:21:41;19.10;99.90
8858;DHT22;4465;50.904;4.696;2022-08-19T00:24:08;19.10;99.90
8858;DHT22;4465;50.904;4.696;2022-08-19T00:26:36;19.10;99.90
8858;DHT22;4465;50.904;4.696;2022-08-19T00:29:03;19.10;99.90
8858;DHT22;4465;50.904;4.696;2022-08-19T00:31:30;19.10;99.90
8858;DHT22;4465;50.904;4.696;2022-08-19T00:33:57;19.10;99.90
8858;DHT22;4465;50.904;4.696;2022-08-19T00:36:23;19.00;99.90
8858;DHT22;4465;50.904;4.696;2022-08-19T00:38:49;19.10;99.90
8858;DHT22;4465;50.904;4.696;2022-08-19T00:41:20;19.10;99.90
8858;DHT22;4465;50.904;4.696;2022-08-19T00:44:04;19.10;99.90
8858;DHT22;4465;50.904;4.696;2022-08-19T00:46:31;19.10;99.90
8858;DHT22;4465;50.904;4.696;2022-08-19T00:49:00;19.10;99.90
8858;DHT22;4465;50.904;4.696;2022-08-19T00:51:29;19.10;99.90
8858;DHT22;4465;50.904;4.696;2022-08-19T00:53:57;19.10;99.90
8858;DHT22;4465;50.904;4.696;2022-08-19T00:56:26;19.10;99.90
8858;DHT22;4465;50.904;4.696;2022-08-19T00:58:55;19.10;99.90
8858;DHT22;4465;50.904;4.696;2022-08-19T01:01:22;19.10;99.90
8858;DHT22;4465;50.904;4.696;2022-08-19T01:03:48;19.00;99.90
8858;DHT22;4465;50.904;4.696;2022-08-19T01:06:15;19.00;99.90
8858;DHT22;4465;50.904;4.696;2022-08-19T01:08:41;19.00;99.90
8858;DHT22;4465;50.904;4.696;2022-08-19T01:11:08;19.00;99.90
8858;DHT22;4465;50.904;4.696;2022-08-19T01:13:34;19.00;99.90
8858;DHT22;4465;50.904;4.696;2022-08-19T01:16:08;19.00;99.90
8858;DHT22;4465;50.904;4.696;2022-08-19T01:18:40;19.00;99.90
8858;DHT22;4465;50.904;4.696;2022-08-19T01:21:26;19.00;99.90
8858;DHT22;4465;50.904;4.696;2022-08-19T01:23:54;19.00;99.90
8858;DHT22;4465;50.904;4.696;2022-08-19T01:26:22;19.00;99.90
8858;DHT22;4465;50.904;4.696;2022-08-19T01:28:50;19.00;99.90
8858;DHT22;4465;50.904;4.696;2022-08-19T01:31:20;19.00;99.90
8858;DHT22;4465;50.904;4.696;2022-08-19T01:33:48;19.00;99.90
8858;DHT22;4465;50.904;4.696;2022-08-19T01:36:38;19.00;99.90
8858;DHT22;4465;50.904;4.696;2022-08-19T01:39:06;18.90;99.90
8858;DHT22;4465;50.904;4.696;2022-08-19T01:41:34;18.90;99.90
8858;DHT22;4465;50.904;4.696;2022-08-19T01:44:00;18.90;99.90
8858;DHT22;4465;50.904;4.696;2022-08-19T01:46:29;18.90;99.90
8858;DHT22;4465;50.904;4.696;2022-08-19T01:48:55;18.80;99.90
8858;DHT22;4465;50.904;4.696;2022-08-19T01:51:21;18.80;99.90
8858;DHT22;4465;50.904;4.696;2022-08-19T01:53:49;18.90;99.90
8858;DHT22;4465;50.904;4.696;2022-08-19T01:56:16;18.80;99.90
8858;DHT22;4465;50.904;4.696;2022-08-19T01:58:47;18.70;99.90
8858;DHT22;4465;50.904;4.696;2022-08-19T02:01:19;18.80;99.90
8858;DHT22;4465;50.904;4.696;2022-08-19T02:03:45;18.70;99.90
8858;DHT22;4465;50.904;4.696;2022-08-19T02:06:12;18.70;99.90
8858;DHT22;4465;50.904;4.696;2022-08-19T02:08:39;18.60;99.90
8858;DHT22;4465;50.904;4.696;2022-08-19T02:11:07;18.60;99.90
8858;DHT22;4465;50.904;4.696;2022-08-19T02:13:34;18.60;99.90
8858;DHT22;4465;50.904;4.696;2022-08-19T02:16:01;18.50;99.90
8858;DHT22;4465;50.904;4.696;2022-08-19T02:18:27;18.50;99.90
8858;DHT22;4465;50.904;4.696;2022-08-19T02:20:52;18.50;99.90
8858;DHT22;4465;50.904;4.696;2022-08-19T02:23:21;18.40;99.90
8858;DHT22;4465;50.904;4.696;2022-08-19T02:25:51;18.40;99.90
8858;DHT22;4465;50.904;4.696;2022-08-19T02:28:17;18.40;99.90
8858;DHT22;4465;50.904;4.696;2022-08-19T02:30:44;18.30;99.90
8858;DHT22;4465;50.904;4.696;2022-08-19T02:33:10;18.30;99.90
8858;DHT22;4465;50.904;4.696;2022-08-19T02:35:36;18.30;99.90
8858;DHT22;4465;50.904;4.696;2022-08-19T02:38:02;18.20;99.90
8858;DHT22;4465;50.904;4.696;2022-08-19T02:40:52;18.20;99.90
8858;DHT22;4465;50.904;4.696;2022-08-19T02:43:22;18.20;99.90
8858;DHT22;4465;50.904;4.696;2022-08-19T02:45:49;18.20;99.90
8858;DHT22;4465;50.904;4.696;2022-08-19T02:48:18;18.20;99.90
8858;DHT22;4465;50.904;4.696;2022-08-19T02:50:45;18.20;99.90
8858;DHT22;4465;50.904;4.696;2022-08-19T02:53:12;18.10;99.90
8858;DHT22;4465;50.904;4.696;2022-08-19T02:55:48;18.10;99.90
8858;DHT22;4465;50.904;4.696;2022-08-19T02:58:14;18.10;99.90
8858;DHT22;4465;50.904;4.696;2022-08-19T03:00:46;18.10;99.90
8858;DHT22;4465;50.904;4.696;2022-08-19T03:03:14;18.10;99.90
8858;DHT22;4465;50.904;4.696;2022-08-19T03:05:41;18.00;99.90
8858;DHT22;4465;50.904;4.696;2022-08-19T03:08:08;18.00;99.90
8858;DHT22;4465;50.904;4.696;2022-08-19T03:10:42;18.00;99.90
8858;DHT22;4465;50.904;4.696;2022-08-19T03:13:14;17.90;99.90
8858;DHT22;4465;50.904;4.696;2022-08-19T03:15:42;17.90;99.90
8858;DHT22;4465;50.904;4.696;2022-08-19T03:18:13;17.90;99.90
8858;DHT22;4465;50.904;4.696;2022-08-19T03:20:45;17.80;99.90
8858;DHT22;4465;50.904;4.696;2022-08-19T03:23:11;17.80;99.90
8858;DHT22;4465;50.904;4.696;2022-08-19T03:25:41;17.80;99.90
8858;DHT22;4465;50.904;4.696;2022-08-19T03:28:14;17.80;99.90
8858;DHT22;4465;50.904;4.696;2022-08-19T03:30:41;17.80;99.90
8858;DHT22;4465;50.904;4.696;2022-08-19T03:33:08;17.70;99.90
8858;DHT22;4465;50.904;4.696;2022-08-19T03:35:34;17.70;99.90
8858;DHT22;4465;50.904;4.696;2022-08-19T03:38:05;17.70;99.90
8858;DHT22;4465;50.904;4.696;2022-08-19T03:40:35;17.60;99.90
8858;DHT22;4465;50.904;4.696;2022-08-19T03:43:01;17.60;99.90
8858;DHT22;4465;50.904;4.696;2022-08-19T03:45:28;17.60;99.90
8858;DHT22;4465;50.904;4.696;2022-08-19T03:47:55;17.60;99.90
8858;DHT22;4465;50.904;4.696;2022-08-19T03:50:21;17.60;99.90
8858;DHT22;4465;50.904;4.696;2022-08-19T03:52:50;17.50;99.90
8858;DHT22;4465;50.904;4.696;2022-08-19T03:55:18;17.50;99.90
8858;DHT22;4465;50.904;4.696;2022-08-19T03:57:45;17.50;99.90
8858;DHT22;4465;50.904;4.696;2022-08-19T04:00:12;17.40;99.90
8858;DHT22;4465;50.904;4.696;2022-08-19T04:02:38;17.40;99.90
8858;DHT22;4465;50.904;4.696;2022-08-19T04:05:05;17.40;99.90
8858;DHT22;4465;50.904;4.696;2022-08-19T04:07:37;17.40;99.90
8858;DHT22;4465;50.904;4.696;2022-08-19T04:10:06;17.30;99.90
8858;DHT22;4465;50.904;4.696;2022-08-19T04:12:32;17.30;99.90
8858;DHT22;4465;50.904;4.696;2022-08-19T04:15:01;17.30;99.90
8858;DHT22;4465;50.904;4.696;2022-08-19T04:17:27;17.30;99.90
8858;DHT22;4465;50.904;4.696;2022-08-19T04:19:53;17.30;99.90
8858;DHT22;4465;50.904;4.696;2022-08-19T04:22:19;17.20;99.90
8858;DHT22;4465;50.904;4.696;2022-08-19T04:24:47;17.20;99.90
8858;DHT22;4465;50.904;4.696;2022-08-19T04:27:14;17.30;99.90
8858;DHT22;4465;50.904;4.696;2022-08-19T04:29:43;17.30;99.90
8858;DHT22;4465;50.904;4.696;2022-08-19T04:32:09;17.20;99.90
8858;DHT22;4465;50.904;4.696;2022-08-19T04:34:36;17.20;99.90
8858;DHT22;4465;50.904;4.696;2022-08-19T04:37:05;17.30;99.90
8858;DHT22;4465;50.904;4.696;2022-08-19T04:39:33;17.20;99.90
8858;DHT22;4465;50.904;4.696;2022-08-19T04:42:18;17.20;99.90
8858;DHT22;4465;50.904;4.696;2022-08-19T04:45:04;17.20;99.90
8858;DHT22;4465;50.904;4.696;2022-08-19T04:47:30;17.20;99.90
8858;DHT22;4465;50.904;4.696;2022-08-19T04:49:58;17.20;99.90
8858;DHT22;4465;50.904;4.696;2022-08-19T04:52:24;17.20;99.90
8858;DHT22;4465;50.904;4.696;2022-08-19T04:54:50;17.20;99.90
8858;DHT22;4465;50.904;4.696;2022-08-19T04:57:16;17.30;99.90
8858;DHT22;4465;50.904;4.696;2022-08-19T04:59:43;17.20;99.90
8858;DHT22;4465;50.904;4.696;2022-08-19T05:02:09;17.20;99.90
8858;DHT22;4465;50.904;4.696;2022-08-19T05:04:40;17.20;99.90
8858;DHT22;4465;50.904;4.696;2022-08-19T05:07:07;17.20;99.90
8858;DHT22;4465;50.904;4.696;2022-08-19T05:09:33;17.20;99.90
8858;DHT22;4465;50.904;4.696;2022-08-19T05:11:59;17.30;99.90
8858;DHT22;4465;50.904;4.696;2022-08-19T05:14:26;17.20;99.90
8858;DHT22;4465;50.904;4.696;2022-08-19T05:16:55;17.20;99.90
8858;DHT22;4465;50.904;4.696;2022-08-19T05:19:21;17.20;99.90
8858;DHT22;4465;50.904;4.696;2022-08-19T05:22:06;17.20;99.90
8858;DHT22;4465;50.904;4.696;2022-08-19T05:24:50;17.20;99.90
8858;DHT22;4465;50.904;4.696;2022-08-19T05:27:18;17.20;99.90
8858;DHT22;4465;50.904;4.696;2022-08-19T05:29:45;17.30;99.90
8858;DHT22;4465;50.904;4.696;2022-08-19T05:32:13;17.30;99.90
8858;DHT22;4465;50.904;4.696;2022-08-19T05:34:39;17.30;99.90
8858;DHT22;4465;50.904;4.696;2022-08-19T05:37:06;17.30;99.90
8858;DHT22;4465;50.904;4.696;2022-08-19T05:39:35;17.40;99.90
8858;DHT22;4465;50.904;4.696;2022-08-19T05:42:05;17.40;99.90
8858;DHT22;4465;50.904;4.696;2022-08-19T05:44:36;17.40;99.90
8858;DHT22;4465;50.904;4.696;2022-08-19T05:47:05;17.40;99.90
8858;DHT22;4465;50.904;4.696;2022-08-19T05:49:32;17.40;99.90
8858;DHT22;4465;50.904;4.696;2022-08-19T05:52:04;17.40;99.90
8858;DHT22;4465;50.904;4.696;2022-08-19T05:54:32;17.40;99.90
8858;DHT22;4465;50.904;4.696;2022-08-19T05:56:59;17.40;99.90
8858;DHT22;4465;50.904;4.696;2022-08-19T05:59:26;17.40;99.90
8858;DHT22;4465;50.904;4.696;2022-08-19T06:01:52;17.50;99.90
8858;DHT22;4465;50.904;4.696;2022-08-19T06:04:22;17.50;99.90
8858;DHT22;4465;50.904;4.696;2022-08-19T06:06:50;17.50;99.90
8858;DHT22;4465;50.904;4.696;2022-08-19T06:09:18;17.50;99.90
8858;DHT22;4465;50.904;4.696;2022-08-19T06:11:48;17.50;99.90
8858;DHT22;4465;50.904;4.696;2022-08-19T06:14:18;17.60;99.90
8858;DHT22;4465;50.904;4.696;2022-08-19T06:16:46;17.60;99.90
8858;DHT22;4465;50.904;4.696;2022-08-19T06:19:15;17.60;99.90
8858;DHT22;4465;50.904;4.696;2022-08-19T06:21:43;17.70;99.90
8858;DHT22;4465;50.904;4.696;2022-08-19T06:24:14;17.60;99.90
8858;DHT22;4465;50.904;4.696;2022-08-19T06:26:46;17.70;99.90
8858;DHT22;4465;50.904;4.696;2022-08-19T06:29:14;17.70;99.90
8858;DHT22;4465;50.904;4.696;2022-08-19T06:31:43;17.70;99.90
8858;DHT22;4465;50.904;4.696;2022-08-19T06:34:12;17.80;99.90
8858;DHT22;4465;50.904;4.696;2022-08-19T06:36:43;17.90;99.90
8858;DHT22;4465;50.904;4.696;2022-08-19T06:39:15;17.90;99.90
8858;DHT22;4465;50.904;4.696;2022-08-19T06:41:46;18.00;99.90
8858;DHT22;4465;50.904;4.696;2022-08-19T06:44:16;18.10;99.90
8858;DHT22;4465;50.904;4.696;2022-08-19T06:46:45;18.20;99.90
8858;DHT22;4465;50.904;4.696;2022-08-19T06:49:11;18.20;99.90
8858;DHT22;4465;50.904;4.696;2022-08-19T06:51:42;18.30;99.90
8858;DHT22;4465;50.904;4.696;2022-08-19T06:54:08;18.40;99.90
8858;DHT22;4465;50.904;4.696;2022-08-19T06:56:38;18.40;99.90
8858;DHT22;4465;50.904;4.696;2022-08-19T06:59:11;18.50;99.90
8858;DHT22;4465;50.904;4.696;2022-08-19T07:01:42;18.50;99.90
8858;DHT22;4465;50.904;4.696;2022-08-19T07:04:11;18.60;99.90
8858;DHT22;4465;50.904;4.696;2022-08-19T07:06:37;18.70;99.90
8858;DHT22;4465;50.904;4.696;2022-08-19T07:09:05;18.70;99.90
8858;DHT22;4465;50.904;4.696;2022-08-19T07:11:31;18.80;99.90
8858;DHT22;4465;50.904;4.696;2022-08-19T07:14:02;18.90;99.90
8858;DHT22;4465;50.904;4.696;2022-08-19T07:16:28;18.90;99.90
8858;DHT22;4465;50.904;4.696;2022-08-19T07:18:55;19.00;99.90
8858;DHT22;4465;50.904;4.696;2022-08-19T07:21:25;19.10;99.90
8858;DHT22;4465;50.904;4.696;2022-08-19T07:23:56;19.20;99.90
8858;DHT22;4465;50.904;4.696;2022-08-19T07:26:28;19.30;99.90
8858;DHT22;4465;50.904;4.696;2022-08-19T07:28:58;19.40;99.90
8858;DHT22;4465;50.904;4.696;2022-08-19T07:31:25;19.50;99.90
8858;DHT22;4465;50.904;4.696;2022-08-19T07:33:53;19.60;99.90
8858;DHT22;4465;50.904;4.696;2022-08-19T07:36:26;19.70;99.90
8858;DHT22;4465;50.904;4.696;2022-08-19T07:39:00;19.80;99.90
8858;DHT22;4465;50.904;4.696;2022-08-19T07:41:29;19.90;99.90
8858;DHT22;4465;50.904;4.696;2022-08-19T07:43:57;20.00;99.90
8858;DHT22;4465;50.904;4.696;2022-08-19T07:46:23;20.10;99.90
8858;DHT22;4465;50.904;4.696;2022-08-19T07:48:54;20.10;99.90
8858;DHT22;4465;50.904;4.696;2022-08-19T07:51:23;20.20;99.90
8858;DHT22;4465;50.904;4.696;2022-08-19T07:53:50;20.30;99.90
8858;DHT22;4465;50.904;4.696;2022-08-19T07:56:20;20.30;99.90
8858;DHT22;4465;50.904;4.696;2022-08-19T07:58:48;20.40;99.90
8858;DHT22;4465;50.904;4.696;2022-08-19T08:01:19;20.40;99.90
8858;DHT22;4465;50.904;4.696;2022-08-19T08:03:49;20.50;99.90
8858;DHT22;4465;50.904;4.696;2022-08-19T08:06:34;20.50;99.90
8858;DHT22;4465;50.904;4.696;2022-08-19T08:09:24;20.50;99.90
8858;DHT22;4465;50.904;4.696;2022-08-19T08:11:58;20.60;99.90
8858;DHT22;4465;50.904;4.696;2022-08-19T08:14:28;20.70;99.90
8858;DHT22;4465;50.904;4.696;2022-08-19T08:16:57;20.80;99.90
8858;DHT22;4465;50.904;4.696;2022-08-19T08:19:24;20.90;99.90
8858;DHT22;4465;50.904;4.696;2022-08-19T08:21:54;20.90;99.90
8858;DHT22;4465;50.904;4.696;2022-08-19T08:24:21;21.00;99.90
8858;DHT22;4465;50.904;4.696;2022-08-19T08:26:49;21.10;99.90
8858;DHT22;4465;50.904;4.696;2022-08-19T08:29:15;21.10;99.90
8858;DHT22;4465;50.904;4.696;2022-08-19T08:31:43;21.10;99.90
8858;DHT22;4465;50.904;4.696;2022-08-19T08:34:11;21.10;99.90
8858;DHT22;4465;50.904;4.696;2022-08-19T08:36:43;21.10;99.90
8858;DHT22;4465;50.904;4.696;2022-08-19T08:39:20;21.10;99.90
8858;DHT22;4465;50.904;4.696;2022-08-19T08:42:10;21.30;99.90
8858;DHT22;4465;50.904;4.696;2022-08-19T08:47:20;21.50;99.90
8858;DHT22;4465;50.904;4.696;2022-08-19T08:50:05;21.50;99.90
8858;DHT22;4465;50.904;4.696;2022-08-19T08:52:39;21.50;99.90
8858;DHT22;4465;50.904;4.696;2022-08-19T08:55:11;21.50;99.90
8858;DHT22;4465;50.904;4.696;2022-08-19T08:57:53;21.50;99.90
8858;DHT22;4465;50.904;4.696;2022-08-19T09:00:27;21.50;99.90
8858;DHT22;4465;50.904;4.696;2022-08-19T09:02:55;21.40;99.90
8858;DHT22;4465;50.904;4.696;2022-08-19T09:05:30;21.50;99.90
8858;DHT22;4465;50.904;4.696;2022-08-19T09:08:08;21.40;99.90
8858;DHT22;4465;50.904;4.696;2022-08-19T09:10:53;21.50;99.90
8858;DHT22;4465;50.904;4.696;2022-08-19T09:16:02;21.60;99.90
8858;DHT22;4465;50.904;4.696;2022-08-19T09:18:39;21.60;99.90
8858;DHT22;4465;50.904;4.696;2022-08-19T09:21:11;21.60;99.90
8858;DHT22;4465;50.904;4.696;2022-08-19T09:23:37;21.60;99.90
8858;DHT22;4465;50.904;4.696;2022-08-19T09:26:08;21.60;99.90
8858;DHT22;4465;50.904;4.696;2022-08-19T09:28:35;21.70;99.90
8858;DHT22;4465;50.904;4.696;2022-08-19T09:31:02;21.70;99.90
8858;DHT22;4465;50.904;4.696;2022-08-19T09:33:28;21.80;99.90
8858;DHT22;4465;50.904;4.696;2022-08-19T09:36:09;21.80;99.90
8858;DHT22;4465;50.904;4.696;2022-08-19T09:38:36;21.80;99.90
8858;DHT22;4465;50.904;4.696;2022-08-19T09:41:11;21.80;99.90
8858;DHT22;4465;50.904;4.696;2022-08-19T09:43:40;21.80;99.90
8858;DHT22;4465;50.904;4.696;2022-08-19T09:46:07;21.80;99.90
8858;DHT22;4465;50.904;4.696;2022-08-19T09:48:41;21.90;99.90
8858;DHT22;4465;50.904;4.696;2022-08-19T09:51:09;21.90;99.90
8858;DHT22;4465;50.904;4.696;2022-08-19T09:53:38;21.90;99.90
8858;DHT22;4465;50.904;4.696;2022-08-19T09:56:06;21.90;99.90
8858;DHT22;4465;50.904;4.696;2022-08-19T09:58:32;22.00;99.90
8858;DHT22;4465;50.904;4.696;2022-08-19T10:01:00;22.10;99.90
8858;DHT22;4465;50.904;4.696;2022-08-19T10:03:28;22.10;99.90
8858;DHT22;4465;50.904;4.696;2022-08-19T10:05:55;22.20;99.90
8858;DHT22;4465;50.904;4.696;2022-08-19T10:08:25;22.20;99.90
8858;DHT22;4465;50.904;4.696;2022-08-19T10:10:51;22.30;99.90
8858;DHT22;4465;50.904;4.696;2022-08-19T10:13:21;22.30;99.90
8858;DHT22;4465;50.904;4.696;2022-08-19T10:15:49;22.30;99.90
8858;DHT22;4465;50.904;4.696;2022-08-19T10:18:22;22.30;99.90
8858;DHT22;4465;50.904;4.696;2022-08-19T10:20:51;22.20;99.90
8858;DHT22;4465;50.904;4.696;2022-08-19T10:23:21;22.30;99.90
8858;DHT22;4465;50.904;4.696;2022-08-19T10:25:47;22.30;99.90
8858;DHT22;4465;50.904;4.696;2022-08-19T10:28:14;22.30;99.90
8858;DHT22;4465;50.904;4.696;2022-08-19T10:30:41;22.30;99.90
8858;DHT22;4465;50.904;4.696;2022-08-19T10:33:07;22.30;99.90
8858;DHT22;4465;50.904;4.696;2022-08-19T10:35:34;22.40;99.90
8858;DHT22;4465;50.904;4.696;2022-08-19T10:38:00;22.40;99.90
8858;DHT22;4465;50.904;4.696;2022-08-19T10:40:28;22.50;99.90
8858;DHT22;4465;50.904;4.696;2022-08-19T10:42:55;22.50;99.90
8858;DHT22;4465;50.904;4.696;2022-08-19T10:45:22;22.50;99.90
8858;DHT22;4465;50.904;4.696;2022-08-19T10:47:50;22.60;99.90
8858;DHT22;4465;50.904;4.696;2022-08-19T10:50:16;22.60;99.90
8858;DHT22;4465;50.904;4.696;2022-08-19T10:53:04;22.70;99.90
8858;DHT22;4465;50.904;4.696;2022-08-19T10:55:34;22.80;99.90
8858;DHT22;4465;50.904;4.696;2022-08-19T10:58:20;22.80;99.90
8858;DHT22;4465;50.904;4.696;2022-08-19T11:00:56;22.80;99.90
8858;DHT22;4465;50.904;4.696;2022-08-19T11:03:26;22.90;99.90
8858;DHT22;4465;50.904;4.696;2022-08-19T11:06:03;23.00;99.90
8858;DHT22;4465;50.904;4.696;2022-08-19T11:08:30;23.10;99.90
8858;DHT22;4465;50.904;4.696;2022-08-19T11:10:59;23.20;99.90
8858;DHT22;4465;50.904;4.696;2022-08-19T11:13:30;23.20;99.90
8858;DHT22;4465;50.904;4.696;2022-08-19T11:15:58;23.20;99.90
8858;DHT22;4465;50.904;4.696;2022-08-19T11:18:25;23.20;99.90
8858;DHT22;4465;50.904;4.696;2022-08-19T11:20:52;23.20;99.90
8858;DHT22;4465;50.904;4.696;2022-08-19T11:23:18;23.20;99.90
8858;DHT22;4465;50.904;4.696;2022-08-19T11:25:45;23.20;99.90
8858;DHT22;4465;50.904;4.696;2022-08-19T11:28:15;23.20;99.90
8858;DHT22;4465;50.904;4.696;2022-08-19T11:30:42;23.20;99.90
8858;DHT22;4465;50.904;4.696;2022-08-19T11:33:08;23.20;99.90
8858;DHT22;4465;50.904;4.696;2022-08-19T11:35:39;23.20;99.90
8858;DHT22;4465;50.904;4.696;2022-08-19T11:38:06;23.20;99.90
8858;DHT22;4465;50.904;4.696;2022-08-19T11:40:32;23.20;99.90
8858;DHT22;4465;50.904;4.696;2022-08-19T11:42:58;23.20;99.90
8858;DHT22;4465;50.904;4.696;2022-08-19T11:45:27;23.20;99.90
8858;DHT22;4465;50.904;4.696;2022-08-19T11:47:54;23.20;99.90
8858;DHT22;4465;50.904;4.696;2022-08-19T11:50:23;23.30;99.90
8858;DHT22;4465;50.904;4.696;2022-08-19T11:52:53;23.30;99.90
8858;DHT22;4465;50.904;4.696;2022-08-19T11:55:20;23.20;99.90
8858;DHT22;4465;50.904;4.696;2022-08-19T11:57:46;23.20;99.90
8858;DHT22;4465;50.904;4.696;2022-08-19T12:00:13;23.20;99.90
8858;DHT22;4465;50.904;4.696;2022-08-19T12:02:40;23.20;99.90
8858;DHT22;4465;50.904;4.696;2022-08-19T12:05:09;23.10;99.90
8858;DHT22;4465;50.904;4.696;2022-08-19T12:07:35;23.00;99.90
8858;DHT22;4465;50.904;4.696;2022-08-19T12:10:01;23.00;99.90
8858;DHT22;4465;50.904;4.696;2022-08-19T12:12:27;23.00;99.90
8858;DHT22;4465;50.904;4.696;2022-08-19T12:14:53;22.90;99.90
8858;DHT22;4465;50.904;4.696;2022-08-19T12:17:23;22.90;99.90
8858;DHT22;4465;50.904;4.696;2022-08-19T12:19:53;22.90;99.90
8858;DHT22;4465;50.904;4.696;2022-08-19T12:22:19;23.00;99.90
8858;DHT22;4465;50.904;4.696;2022-08-19T12:24:46;23.00;99.90
8858;DHT22;4465;50.904;4.696;2022-08-19T12:27:16;23.00;99.90
8858;DHT22;4465;50.904;4.696;2022-08-19T12:29:42;22.90;99.90
8858;DHT22;4465;50.904;4.696;2022-08-19T12:32:08;23.00;99.90
8858;DHT22;4465;50.904;4.696;2022-08-19T12:34:35;23.00;99.90
8858;DHT22;4465;50.904;4.696;2022-08-19T12:37:03;23.10;99.90
8858;DHT22;4465;50.904;4.696;2022-08-19T12:39:37;23.10;99.90
8858;DHT22;4465;50.904;4.696;2022-08-19T12:42:08;23.20;99.90
8858;DHT22;4465;50.904;4.696;2022-08-19T12:44:35;23.20;99.90
8858;DHT22;4465;50.904;4.696;2022-08-19T12:47:05;23.20;99.90
8858;DHT22;4465;50.904;4.696;2022-08-19T12:49:32;23.20;99.90
8858;DHT22;4465;50.904;4.696;2022-08-19T12:52:06;23.40;99.90
8858;DHT22;4465;50.904;4.696;2022-08-19T12:54:36;23.50;99.90
8858;DHT22;4465;50.904;4.696;2022-08-19T12:57:07;23.50;99.90
8858;DHT22;4465;50.904;4.696;2022-08-19T12:59:35;23.60;99.90
8858;DHT22;4465;50.904;4.696;2022-08-19T13:02:06;23.70;99.90
8858;DHT22;4465;50.904;4.696;2022-08-19T13:04:34;23.80;99.90
8858;DHT22;4465;50.904;4.696;2022-08-19T13:07:07;23.90;99.90
8858;DHT22;4465;50.904;4.696;2022-08-19T13:09:33;24.00;99.90
8858;DHT22;4465;50.904;4.696;2022-08-19T13:11:59;24.10;99.90
8858;DHT22;4465;50.904;4.696;2022-08-19T13:14:29;24.20;99.90
8858;DHT22;4465;50.904;4.696;2022-08-19T13:16:57;24.20;99.90
8858;DHT22;4465;50.904;4.696;2022-08-19T13:19:23;24.30;99.90
8858;DHT22;4465;50.904;4.696;2022-08-19T13:21:52;24.40;99.90
8858;DHT22;4465;50.904;4.696;2022-08-19T13:24:23;24.40;99.90
8858;DHT22;4465;50.904;4.696;2022-08-19T13:26:50;24.50;99.90
8858;DHT22;4465;50.904;4.696;2022-08-19T13:29:18;24.50;99.90
8858;DHT22;4465;50.904;4.696;2022-08-19T13:32:05;24.60;99.90
8858;DHT22;4465;50.904;4.696;2022-08-19T13:34:50;24.70;99.90
8858;DHT22;4465;50.904;4.696;2022-08-19T13:37:16;24.70;99.90
8858;DHT22;4465;50.904;4.696;2022-08-19T13:40:02;24.70;99.90
8858;DHT22;4465;50.904;4.696;2022-08-19T13:42:31;24.70;99.90
8858;DHT22;4465;50.904;4.696;2022-08-19T13:44:58;24.70;99.90
8858;DHT22;4465;50.904;4.696;2022-08-19T13:47:24;24.80;99.90
8858;DHT22;4465;50.904;4.696;2022-08-19T13:49:51;24.70;99.90
8858;DHT22;4465;50.904;4.696;2022-08-19T13:52:20;24.70;99.90
8858;DHT22;4465;50.904;4.696;2022-08-19T13:54:46;24.70;99.90
8858;DHT22;4465;50.904;4.696;2022-08-19T13:57:13;24.70;99.90
8858;DHT22;4465;50.904;4.696;2022-08-19T13:59:39;24.60;99.90
8858;DHT22;4465;50.904;4.696;2022-08-19T14:02:04;24.70;99.90
8858;DHT22;4465;50.904;4.696;2022-08-19T14:04:31;24.70;99.90
8858;DHT22;4465;50.904;4.696;2022-08-19T14:06:57;24.70;99.90
8858;DHT22;4465;50.904;4.696;2022-08-19T14:09:22;24.70;99.90
8858;DHT22;4465;50.904;4.696;2022-08-19T14:11:49;24.70;99.90
8858;DHT22;4465;50.904;4.696;2022-08-19T14:14:16;24.80;99.90
8858;DHT22;4465;50.904;4.696;2022-08-19T14:16:42;24.80;99.90
8858;DHT22;4465;50.904;4.696;2022-08-19T14:19:08;24.70;99.90
8858;DHT22;4465;50.904;4.696;2022-08-19T14:21:37;24.70;99.90
8858;DHT22;4465;50.904;4.696;2022-08-19T14:24:03;24.70;99.90
8858;DHT22;4465;50.904;4.696;2022-08-19T14:26:29;24.70;99.90
8858;DHT22;4465;50.904;4.696;2022-08-19T14:28:55;24.70;99.90
8858;DHT22;4465;50.904;4.696;2022-08-19T14:31:22;24.70;99.90
8858;DHT22;4465;50.904;4.696;2022-08-19T14:33:49;24.80;99.90
8858;DHT22;4465;50.904;4.696;2022-08-19T14:36:19;24.80;99.90
8858;DHT22;4465;50.904;4.696;2022-08-19T14:38:46;24.80;99.90
8858;DHT22;4465;50.904;4.696;2022-08-19T14:41:17;24.80;99.90
8858;DHT22;4465;50.904;4.696;2022-08-19T14:43:47;24.80;99.90
8858;DHT22;4465;50.904;4.696;2022-08-19T14:46:19;24.80;99.90
8858;DHT22;4465;50.904;4.696;2022-08-19T14:48:49;24.90;99.90
8858;DHT22;4465;50.904;4.696;2022-08-19T14:51:16;24.90;99.90
8858;DHT22;4465;50.904;4.696;2022-08-19T14:53:42;24.90;99.90
8858;DHT22;4465;50.904;4.696;2022-08-19T14:56:14;24.90;99.90
8858;DHT22;4465;50.904;4.696;2022-08-19T14:58:42;24.80;99.90
8858;DHT22;4465;50.904;4.696;2022-08-19T15:01:09;24.70;99.90
8858;DHT22;4465;50.904;4.696;2022-08-19T15:03:35;24.50;99.90
8858;DHT22;4465;50.904;4.696;2022-08-19T15:06:04;24.40;99.90
8858;DHT22;4465;50.904;4.696;2022-08-19T15:08:34;24.30;99.90
8858;DHT22;4465;50.904;4.696;2022-08-19T15:11:01;24.20;99.90
8858;DHT22;4465;50.904;4.696;2022-08-19T15:13:28;24.00;99.90
8858;DHT22;4465;50.904;4.696;2022-08-19T15:15:55;23.90;99.90
8858;DHT22;4465;50.904;4.696;2022-08-19T15:18:23;23.80;99.90
8858;DHT22;4465;50.904;4.696;2022-08-19T15:20:49;23.70;99.90
8858;DHT22;4465;50.904;4.696;2022-08-19T15:23:17;23.60;99.90
8858;DHT22;4465;50.904;4.696;2022-08-19T15:25:45;23.50;99.90
8858;DHT22;4465;50.904;4.696;2022-08-19T15:28:11;23.40;99.90
8858;DHT22;4465;50.904;4.696;2022-08-19T15:30:42;23.30;99.90
8858;DHT22;4465;50.904;4.696;2022-08-19T15:33:10;23.20;99.90
8858;DHT22;4465;50.904;4.696;2022-08-19T15:35:41;23.20;99.90
8858;DHT22;4465;50.904;4.696;2022-08-19T15:38:12;23.10;99.90
8858;DHT22;4465;50.904;4.696;2022-08-19T15:40:41;23.10;99.90
8858;DHT22;4465;50.904;4.696;2022-08-19T15:43:07;23.00;99.90
8858;DHT22;4465;50.904;4.696;2022-08-19T15:45:36;22.90;99.90
8858;DHT22;4465;50.904;4.696;2022-08-19T15:48:06;22.90;99.90
8858;DHT22;4465;50.904;4.696;2022-08-19T15:50:32;22.70;99.90
8858;DHT22;4465;50.904;4.696;2022-08-19T15:53:07;22.70;99.90
8858;DHT22;4465;50.904;4.696;2022-08-19T15:55:36;22.60;99.90
8858;DHT22;4465;50.904;4.696;2022-08-19T15:58:07;22.60;99.90
8858;DHT22;4465;50.904;4.696;2022-08-19T16:00:53;22.60;99.90
8858;DHT22;4465;50.904;4.696;2022-08-19T16:03:38;22.60;99.90
8858;DHT22;4465;50.904;4.696;2022-08-19T16:06:23;22.60;99.90
8858;DHT22;4465;50.904;4.696;2022-08-19T16:08:56;22.70;99.90
8858;DHT22;4465;50.904;4.696;2022-08-19T16:11:27;22.70;99.90
8858;DHT22;4465;50.904;4.696;2022-08-19T16:13:56;22.80;99.90
8858;DHT22;4465;50.904;4.696;2022-08-19T16:16:27;22.80;99.90
8858;DHT22;4465;50.904;4.696;2022-08-19T16:18:59;22.90;99.90
8858;DHT22;4465;50.904;4.696;2022-08-19T16:21:27;22.90;99.90